WetterOnline ( https://www.wetteronline.de )

Wetter aktuell Molfsee

Aktuelles Wetter: Kiel/Holtenau (27m)

6-stündlich | Neueste Meldungen
Ortszeit Temperatur Wetter
Di, 07.07. 2:00 11.5° C wolkig
Mo, 06.07. 20:00 15.0° C leicht bewölkt
Mo, 06.07. 14:00 17.3° C wolkig
Mo, 06.07. 8:00 12.2° C leicht bewölkt
Mo, 06.07. 2:00 14.1° C bedeckt
So, 05.07. 20:00 17.2° C bewölkt
So, 05.07. 14:00 19.4° C bedeckt
So, 05.07. 8:00 17.5° C Regen
Ortszeit Temperatur Wetter
Di, 07.07. 6:00 10.1° C wolkenlos
Di, 07.07. 5:50 10.1° C wolkenlos
Di, 07.07. 5:40 9.6° C wolkenlos
Di, 07.07. 5:30 9.5° C fast wolkenlos
Di, 07.07. 5:20 9.5° C fast wolkenlos
Di, 07.07. 5:10 9.6° C fast wolkenlos
Di, 07.07. 5:00 9.4° C fast wolkenlos
Di, 07.07. 4:30 9.8° C leicht bewölkt
Di, 07.07. 4:00 9.9° C wolkenlos
Di, 07.07. 3:30 10.4° C wolkenlos
Di, 07.07. 3:00 11.1° C leicht bewölkt
Di, 07.07. 2:30 11.6° C bewölkt
Ortszeit Relative Feuchte Sichtweite
Di, 07.07. 2:00 78% 40 km
Mo, 06.07. 20:00 63% 30 km
Mo, 06.07. 14:00 61% 65 km
Mo, 06.07. 8:00 91% 45 km
Mo, 06.07. 2:00 76% 40 km
So, 05.07. 20:00 63% 45 km
So, 05.07. 14:00 77% >70 km
So, 05.07. 8:00 94% 27 km
Ortszeit Relative Feuchte Sichtweite
Di, 07.07. 6:00 84% 30 km
Di, 07.07. 5:50 84% -
Di, 07.07. 5:40 86% -
Di, 07.07. 5:30 87% 35 km
Di, 07.07. 5:20 87% -
Di, 07.07. 5:10 86% -
Di, 07.07. 5:00 86% 40 km
Di, 07.07. 4:30 85% 35 km
Di, 07.07. 4:00 84% 35 km
Di, 07.07. 3:30 82% 40 km
Di, 07.07. 3:00 79% 40 km
Di, 07.07. 2:30 77% 40 km
Ortszeit Niederschlagsmenge Niederschlagsart
Di, 07.07. 2:00 0.0 l/m2 in 6 Std. -
Mo, 06.07. 20:00 3 l/m2 in 12 Std. Regen
Mo, 06.07. 14:00 2 l/m2 in 6 Std. Regen
Mo, 06.07. 8:00 5 l/m2 in 12 Std. Regen
Mo, 06.07. 2:00 0.0 l/m2 in 6 Std. -
So, 05.07. 20:00 1 l/m2 in 12 Std. -
So, 05.07. 14:00 1 l/m2 in 6 Std. Regen
So, 05.07. 8:00 3 l/m2 in 12 Std. Regen
Ortszeit Niederschlagsmenge Niederschlagsart
Di, 07.07. 6:00 0.0 l/m2 in 1 Std. -
Di, 07.07. 5:50 keine Meldung -
Di, 07.07. 5:40 keine Meldung -
Di, 07.07. 5:30 0.0 l/m2 in 1 Std. -
Di, 07.07. 5:20 keine Meldung -
Di, 07.07. 5:10 keine Meldung -
Di, 07.07. 5:00 0.0 l/m2 in 1 Std. -
Di, 07.07. 4:30 0.0 l/m2 in 1 Std. -
Di, 07.07. 4:00 0.0 l/m2 in 1 Std. -
Di, 07.07. 3:30 0.0 l/m2 in 1 Std. -
Di, 07.07. 3:00 0.0 l/m2 in 1 Std. -
Di, 07.07. 2:30 0.0 l/m2 in 1 Std. -
Ortszeit Stärke Spitze Richtung
km/h Bft. km/h Grad Sektor
Di, 07.07. 2:00 18 3 47 270° W
Mo, 06.07. 20:00 28 4 67 290° W
Mo, 06.07. 14:00 33 5 69 260° W
Mo, 06.07. 8:00 18 3 58 220° SW
Mo, 06.07. 2:00 13 3 46 200° S
So, 05.07. 20:00 25 4 79 250° W
So, 05.07. 14:00 37 5 57 230° SW
So, 05.07. 8:00 22 4 37 220° SW
Ortszeit Stärke Spitze Richtung
km/h Bft. km/h Grad Sektor
Di, 07.07. 6:00 11 2 19 260° W
Di, 07.07. 5:50 11 2 - 260° W
Di, 07.07. 5:40 11 2 - 270° W
Di, 07.07. 5:30 9 2 19 260° W
Di, 07.07. 5:20 9 2 - 260° W
Di, 07.07. 5:10 11 2 - 260° W
Di, 07.07. 5:00 13 3 19 270° W
Di, 07.07. 4:30 13 3 17 260° W
Di, 07.07. 4:00 15 3 24 270° W
Di, 07.07. 3:30 13 3 24 270° W
Di, 07.07. 3:00 17 3 30 270° W
Di, 07.07. 2:30 20 4 30 280° W
Ortszeit Untergrenze Bedeckung Gattung
total tief tief mittel hoch
Di, 07.07. 2:00 840 m 6/8 6/8 - - -
Mo, 06.07. 20:00 1140 m 4/8 4/8 - - -
Mo, 06.07. 14:00 990 m 7/8 4/8 - - -
Mo, 06.07. 8:00 1260 m 5/8 1/8 - - -
Mo, 06.07. 2:00 3000 m 8/8 8/8 - - -
So, 05.07. 20:00 1170 m 7/8 7/8 - - -
So, 05.07. 14:00 600 m 8/8 8/8 - - -
So, 05.07. 8:00 240 m 8/8 8/8 - - -
Ortszeit Bedeckungsgrad in Achtel und Wolkenuntergrenze
Di, 07.07. 6:00 keine Wolken
Di, 07.07. 5:50 keine Wolken
Di, 07.07. 5:40 keine Wolken
Di, 07.07. 5:30 1(1320m)
Di, 07.07. 5:20 1(1320m)
Di, 07.07. 5:10 1(1320m)
Di, 07.07. 5:00 2(1320m)
Di, 07.07. 4:30 2(1350m)
Di, 07.07. 4:00 keine Wolken
Di, 07.07. 3:30 keine Wolken
Di, 07.07. 3:00 4(1140m)
Di, 07.07. 2:30 1(750m) 3(1140m) 7(1500m)
Ortszeit Luftdruck NN (hPa) Tendenz (hPa in 3 Std.)
Di, 07.07. 2:00 1015 + 1,4
Mo, 06.07. 20:00 1012 + 2,3
Mo, 06.07. 14:00 1007 + 2,0
Mo, 06.07. 8:00 1004 + 0,1
Mo, 06.07. 2:00 1005 - 1,2
So, 05.07. 20:00 1006 + 0,6
So, 05.07. 14:00 1003 0,0
So, 05.07. 8:00 1004 - 1,2
Ortszeit Luftdruck NN (hPa) Tendenz (hPa in 3 Std.)
Di, 07.07. 6:00 1016 + 0,5
Di, 07.07. 5:50 1016 keine Meldung
Di, 07.07. 5:40 1016 keine Meldung
Di, 07.07. 5:30 1016 + 0,7
Di, 07.07. 5:20 1016 keine Meldung
Di, 07.07. 5:10 1016 keine Meldung
Di, 07.07. 5:00 1016 + 0,9
Di, 07.07. 4:30 1016 + 1,1
Di, 07.07. 4:00 1016 + 1,1
Di, 07.07. 3:30 1016 + 1,2
Di, 07.07. 3:00 1016 + 1,4
Di, 07.07. 2:30 1016 + 1,4
Ortszeit Schneehöhe (cm)
Di, 07.07. 2:00 -
Mo, 06.07. 20:00 -
Mo, 06.07. 14:00 -
Mo, 06.07. 8:00 -
Mo, 06.07. 2:00 -
So, 05.07. 20:00 -
So, 05.07. 14:00 -
So, 05.07. 8:00 -
Ortszeit Schneehöhe (cm)
Di, 07.07. 6:00 -
Di, 07.07. 5:50 -
Di, 07.07. 5:40 -
Di, 07.07. 5:30 -
Di, 07.07. 5:20 -
Di, 07.07. 5:10 -
Di, 07.07. 5:00 -
Di, 07.07. 4:30 -
Di, 07.07. 4:00 -
Di, 07.07. 3:30 -
Di, 07.07. 3:00 -
Di, 07.07. 2:30 -
Link zu dieser Seite / Seite empfehlen

Das Wetter in ...